Terminal Aerodrome Forecast
Issued by NWS Cleveland, OH

Home | Current Version | Previous Version | Graphics & Text | Print | Product List | Glossary On
Versions: 1 2 3 4 5 6 7 8 9 10 11 12 13 14 15
846
FTUS41 KCLE 080529
TAFCAK
TAF
KCAK 080529Z 0806/0906 24009KT P6SM OVC025
     FM080900 24008KT P6SM SCT025
     FM081600 22014G20KT P6SM FEW250
     FM090000 22008KT P6SM FEW250=

USA.gov is the U.S. government's official web portal to all federal, state and local government web resources and services.